Huvudsida
METAR-TAF:

METAR-TAF

Flygplatser :

Örnsköldsvik Airport

Örnsköldsvik, Sverige

latitud: 63-24N, longitud: 018-58E, höjd: 103 m

Aktuellt väderrapport

Denna rapport gjordes för 37 minuter sedan, klockan 11:20 UTC
Vind 9 kt från nord/nordväst, varierande mellan nordväst och nordost
Temperatur -1°C
Fuktighet 86%
Tryck 1021 hPa
Sikt 10 km eller mer

METAR: ESNO 111120Z AUTO 34009KT 320V040 9999 BKN013/// OVC110/// M01/M03 Q1021

Tid: 12:57 (11:57 UTC)

Väderprognos

Denna rapport gjordes för 27 minuter sedan, klockan 11:30 UTC
Prognos gäller från 11 kl. 12 UTC till 11 kl. 21 UTC
Vind 7 kt från nord
Sikt 10 km eller mer
Spridda moln på en höjd av 1200 ft
Sannolikhet 40%
från 11 kl. 12 UTC till 11 kl. 14 UTC
Brutna moln på en höjd av 1200 ft

TAF: ESNO 111130Z 1112/1121 35007KT 9999 SCT012 PROB40 1112/1114 BKN012

Aktuella väderrapporter och prognoser från 4000 flygplatser (METAR- och TAF-rapporter).

De tillgängliga stationerna syns som gula och röda prickar på kartan.

För musen över prickarna för att se namnen på stationerna.

Klicka sedan för att få väderrapporter och prognoser.

För att ändra kartan: Klicka på de gröna knapparna med ett svart kors på för att zooma in; den gröna knappen med ett streck på för att zooma ut; eller på de gröna pilarna för angränsande kartor.


METAR-TAF: